Terminal Aerodrome Forecast
Issued by NWS Quad Cities IA IL

Home | Current Version | Previous Version | Text Only | Print | Product List | Glossary On
Versions: 1 2 3 4 5 6 7 8 9 10 11 12 13 14 15 16 17 18 19 20 21
845
FTUS43 KDVN 121457 CCA
TAFMLI
TAF COR
KMLI 121457Z 1215/1312 31015G23KT P6SM VCSH OVC015
      TEMPO 1215/1216 3SM -SN
     FM121800 31016G25KT P6SM SCT030
     FM130200 33013KT P6SM SKC=

USA.gov is the U.S. government's official web portal to all federal, state and local government web resources and services.